Scammon Bay Airport Scammon Bay US
ICAO: PACM
IATA:
Category: Medium
Scheduled Services:

Elevation: 14 ft
TransAlt. 18000 ft.

Airport Communications:
ASOS:118.425
CTAF/UNICOM:123

PACM Zoom In..

If you have problems with the map follow the link
https://www.worldairports.se/pages/airport.php?
ICAO=PACM

Runways:

(A) RW 10 length 3000 ft width 75 ft
---- / hdg 101

(B) RW 28 length 3000 ft width 75 ft
---- / hdg 281

Location; PACM
Day. 08 / Time. 09.56 Zulu
* Altimeter: 29.01
* Temperature: 01° c. 33.8°f.
* Wind from: 130° Speed 12 kn.
Dewpoint: -01° c.
Visibility: 10 Statute Miles.
Clouds: Broken 4800 ft.

PACM 080956Z AUTO 13012KT 10SM BKN048 01/M01 A2901 RMK AO2 SLP818 T00061011 FZRANO


Wind From 130°
Speed 12 kn.

 
 
jpsmedia worldairports.se 2019   terms of use